createdAt,value
2023-04-02T00:00:09.964Z,99.35
2023-04-02T00:03:02.134Z,99.44
2023-04-02T00:05:31.769Z,98.78
2023-04-02T00:08:05.080Z,99.69
2023-04-02T00:10:38.211Z,99.71
2023-04-02T00:13:19.674Z,100.00
2023-04-02T00:15:54.800Z,100.00
2023-04-02T00:18:22.063Z,99.18
2023-04-02T00:21:00.240Z,99.44
2023-04-02T00:23:32.135Z,98.81
2023-04-02T00:25:58.692Z,99.54
2023-04-02T00:28:26.082Z,98.71
2023-04-02T00:30:58.266Z,99.89
2023-04-02T00:33:28.317Z,99.07
2023-04-02T00:35:59.144Z,98.75
2023-04-02T00:38:33.008Z,98.54
2023-04-02T00:41:03.625Z,97.98
2023-04-02T00:43:35.506Z,97.94
2023-04-02T00:46:11.663Z,97.44
2023-04-02T00:48:48.810Z,97.22
2023-04-02T00:51:34.128Z,97.34
2023-04-02T00:54:06.194Z,97.71
2023-04-02T00:56:42.475Z,98.11
2023-04-02T00:59:20.621Z,97.26
2023-04-02T01:01:52.282Z,97.40
2023-04-02T01:04:34.148Z,97.99
2023-04-02T01:07:03.672Z,98.21
2023-04-02T01:09:42.156Z,97.94
2023-04-02T01:12:14.546Z,98.07
2023-04-02T01:14:48.891Z,98.33
2023-04-02T01:17:44.381Z,98.38
2023-04-02T01:20:37.510Z,98.02
2023-04-02T01:23:34.804Z,97.68
2023-04-02T01:26:04.259Z,97.50
2023-04-02T01:29:06.462Z,97.26
2023-04-02T01:31:34.067Z,96.75
2023-04-02T01:34:03.878Z,96.78
2023-04-02T01:36:50.150Z,96.06
2023-04-02T01:39:22.524Z,96.48
2023-04-02T01:42:13.400Z,95.79
2023-04-02T01:44:50.409Z,95.16
2023-04-02T01:47:24.686Z,93.98
2023-04-02T01:50:06.338Z,94.28
2023-04-02T01:52:45.693Z,94.06
2023-04-02T01:55:14.927Z,95.01
2023-04-02T01:57:46.682Z,94.44
2023-04-02T02:00:15.933Z,94.16
2023-04-02T02:02:46.668Z,95.39
2023-04-02T02:05:19.189Z,94.57
2023-04-02T02:07:45.722Z,94.88
2023-04-02T02:10:49.123Z,94.26
2023-04-02T02:13:19.922Z,94.57
2023-04-02T02:15:47.860Z,94.81
2023-04-02T02:18:23.910Z,95.43
2023-04-02T02:20:52.038Z,95.45
2023-04-02T02:23:19.631Z,95.98
2023-04-02T02:25:46.930Z,96.22
2023-04-02T02:28:22.891Z,96.50
2023-04-02T02:31:02.550Z,96.60
2023-04-02T02:33:34.120Z,96.18
2023-04-02T02:36:07.610Z,95.97
2023-04-02T02:38:33.933Z,96.71
2023-04-02T02:41:23.437Z,96.57
2023-04-02T02:44:10.973Z,96.05
2023-04-02T02:46:45.740Z,96.05
2023-04-02T02:49:41.725Z,96.42
2023-04-02T02:52:20.369Z,96.03
2023-04-02T02:54:54.724Z,96.91
2023-04-02T02:57:25.008Z,96.96
2023-04-02T02:59:54.286Z,96.05
2023-04-02T03:02:21.890Z,96.49
2023-04-02T03:04:57.730Z,95.67
2023-04-02T03:07:27.919Z,96.62
2023-04-02T03:10:29.638Z,96.40
2023-04-02T03:13:17.703Z,96.27
2023-04-02T03:15:59.275Z,96.22
2023-04-02T03:19:02.839Z,95.97
2023-04-02T03:21:50.501Z,96.45
2023-04-02T03:24:38.775Z,95.65
2023-04-02T03:27:20.302Z,96.21
2023-04-02T03:30:03.164Z,96.13
2023-04-02T03:32:34.756Z,96.05
2023-04-02T03:35:27.196Z,96.36
2023-04-02T03:38:00.542Z,96.59
2023-04-02T03:40:42.183Z,95.39
2023-04-02T03:43:23.613Z,94.91
2023-04-02T03:45:54.914Z,95.02
2023-04-02T03:48:31.292Z,94.91
2023-04-02T03:51:07.159Z,94.88
2023-04-02T03:53:34.163Z,94.44
2023-04-02T03:56:01.971Z,94.43
2023-04-02T03:58:37.002Z,93.73
2023-04-02T04:01:29.594Z,92.73
2023-04-02T04:04:06.468Z,93.27
2023-04-02T04:06:46.865Z,94.17
2023-04-02T04:09:25.022Z,93.67
2023-04-02T04:12:08.056Z,93.92
2023-04-02T04:14:44.838Z,94.33
2023-04-02T04:17:39.365Z,92.94
2023-04-02T04:20:21.907Z,92.81
2023-04-02T04:22:52.225Z,93.40
2023-04-02T04:25:28.318Z,93.19
2023-04-02T04:28:16.060Z,93.64
2023-04-02T04:31:01.083Z,93.92
2023-04-02T04:33:33.584Z,92.31
2023-04-02T04:36:03.291Z,91.69
2023-04-02T04:38:35.616Z,91.48
2023-04-02T04:41:13.103Z,90.28
2023-04-02T04:43:56.286Z,88.90
2023-04-02T04:46:35.130Z,89.13
2023-04-02T04:49:32.593Z,88.38
2023-04-02T04:52:17.776Z,88.56
2023-04-02T04:54:46.499Z,89.09
2023-04-02T04:57:35.336Z,88.66
2023-04-02T05:00:27.003Z,88.33
2023-04-02T05:03:22.216Z,88.87
2023-04-02T05:05:49.280Z,89.28
2023-04-02T05:08:33.563Z,88.48
2023-04-02T05:11:13.701Z,87.70
2023-04-02T05:13:54.276Z,87.29
2023-04-02T05:16:28.754Z,87.71
2023-04-02T05:19:00.895Z,86.88
2023-04-02T05:21:44.511Z,87.81
2023-04-02T05:24:28.964Z,88.40
2023-04-02T05:27:02.197Z,87.34
2023-04-02T05:29:35.212Z,86.90
2023-04-02T05:32:15.648Z,87.05
2023-04-02T05:34:46.260Z,87.26
2023-04-02T05:37:19.989Z,87.44
2023-04-02T05:39:56.351Z,87.54
2023-04-02T05:42:27.149Z,86.63
2023-04-02T05:45:03.048Z,86.35
2023-04-02T05:47:31.863Z,86.95
2023-04-02T05:50:04.352Z,86.60
2023-04-02T05:52:36.214Z,86.45
2023-04-02T05:55:26.314Z,86.96
2023-04-02T05:58:33.873Z,86.94
2023-04-02T06:01:10.966Z,87.63
2023-04-02T06:03:54.466Z,86.70
2023-04-02T06:06:48.206Z,86.70
2023-04-02T06:09:27.130Z,86.92
2023-04-02T06:12:10.614Z,86.39
2023-04-02T06:14:36.977Z,86.08
2023-04-02T06:17:03.470Z,87.09
2023-04-02T06:19:35.499Z,87.24
2023-04-02T06:22:29.487Z,87.08
2023-04-02T06:25:09.494Z,86.70
2023-04-02T06:27:37.179Z,85.47
2023-04-02T06:30:09.113Z,84.47
2023-04-02T06:32:35.519Z,85.37
2023-04-02T06:35:01.959Z,85.83
2023-04-02T06:37:46.045Z,86.21
2023-04-02T06:40:33.625Z,85.71
2023-04-02T06:43:05.886Z,85.26
2023-04-02T06:45:39.519Z,84.59
2023-04-02T06:48:12.681Z,85.12
2023-04-02T06:50:47.961Z,85.50
2023-04-02T06:53:35.088Z,85.48
2023-04-02T06:56:07.964Z,84.70
2023-04-02T06:58:35.373Z,84.21
2023-04-02T07:01:01.791Z,84.74
2023-04-02T07:03:32.487Z,85.33
2023-04-02T07:06:01.947Z,84.60
2023-04-02T07:08:28.399Z,84.67
2023-04-02T07:10:56.346Z,84.92
2023-04-02T07:13:27.010Z,84.81
2023-04-02T07:15:55.893Z,84.87
2023-04-02T07:18:32.972Z,85.07
2023-04-02T07:21:01.355Z,83.72
2023-04-02T07:23:27.704Z,84.75
2023-04-02T07:25:55.562Z,84.81
2023-04-02T07:28:27.823Z,84.18
2023-04-02T07:30:54.833Z,84.79
2023-04-02T07:33:28.486Z,84.12
2023-04-02T07:36:03.502Z,84.24
2023-04-02T07:38:29.850Z,84.05
2023-04-02T07:41:05.857Z,84.16
2023-04-02T07:43:35.374Z,83.46
2023-04-02T07:46:07.170Z,84.10
2023-04-02T07:48:33.602Z,83.72
2023-04-02T07:51:00.983Z,84.94
2023-04-02T07:53:33.741Z,84.53
2023-04-02T07:56:02.444Z,84.78
2023-04-02T07:58:35.625Z,84.10
2023-04-02T08:01:02.949Z,85.26
2023-04-02T08:03:31.743Z,86.66
2023-04-02T08:06:04.130Z,84.83
2023-04-02T08:08:30.478Z,84.99
2023-04-02T08:10:58.606Z,85.79
2023-04-02T08:13:24.919Z,85.90
2023-04-02T08:15:51.253Z,84.40
2023-04-02T08:18:17.553Z,84.62
2023-04-02T08:20:43.832Z,83.95
2023-04-02T08:23:14.776Z,84.87
2023-04-02T08:25:48.704Z,84.90
2023-04-02T08:28:15.377Z,84.37
2023-04-02T08:30:42.503Z,84.02
2023-04-02T08:33:13.254Z,83.72
2023-04-02T08:35:41.525Z,82.97
2023-04-02T08:38:07.834Z,82.21
2023-04-02T08:40:37.698Z,81.65
2023-04-02T08:43:36.763Z,82.02
2023-04-02T08:46:22.068Z,81.38
2023-04-02T08:48:53.497Z,79.60
2023-04-02T08:51:25.745Z,80.02
2023-04-02T08:53:56.172Z,79.65
2023-04-02T08:56:47.479Z,79.40
2023-04-02T08:59:43.338Z,79.52
2023-04-02T09:02:39.121Z,79.36
2023-04-02T09:05:08.059Z,79.65
2023-04-02T09:07:34.759Z,78.75
2023-04-02T09:10:01.645Z,78.61
2023-04-02T09:12:31.977Z,81.00
2023-04-02T09:15:16.490Z,79.41
2023-04-02T09:17:53.170Z,77.93
2023-04-02T09:20:25.194Z,78.33
2023-04-02T09:22:53.513Z,78.38
2023-04-02T09:25:28.228Z,77.67
2023-04-02T09:27:57.368Z,77.94
2023-04-02T09:30:44.582Z,78.19
2023-04-02T09:33:10.981Z,76.96
2023-04-02T09:35:55.065Z,76.62
2023-04-02T09:38:24.481Z,76.64
2023-04-02T09:40:53.741Z,75.79
2023-04-02T09:43:31.359Z,75.68
2023-04-02T09:46:24.500Z,75.36
2023-04-02T09:48:54.732Z,74.59
2023-04-02T09:51:23.890Z,72.98
2023-04-02T09:54:05.627Z,68.30
2023-04-02T09:56:34.860Z,65.60
2023-04-02T09:59:18.878Z,65.78
2023-04-02T10:01:54.275Z,63.91
2023-04-02T10:04:43.806Z,61.54
2023-04-02T10:07:36.075Z,59.75
2023-04-02T10:10:20.825Z,59.09
2023-04-02T10:13:01.456Z,58.28
2023-04-02T10:15:55.104Z,58.64
2023-04-02T10:18:44.307Z,57.76
2023-04-02T10:21:19.255Z,55.04
2023-04-02T10:23:45.641Z,54.36
2023-04-02T10:26:11.965Z,53.96
2023-04-02T10:29:07.412Z,52.20
2023-04-02T10:32:05.513Z,52.76
2023-04-02T10:34:58.017Z,54.91
2023-04-02T10:37:44.632Z,52.16
2023-04-02T10:40:36.625Z,52.37
2023-04-02T10:43:15.103Z,51.79
2023-04-02T10:45:49.613Z,50.56
2023-04-02T10:48:46.248Z,48.99
2023-04-02T10:52:00.665Z,49.46
2023-04-02T10:54:48.278Z,47.82
2023-04-02T10:57:28.091Z,47.75
2023-04-02T11:00:13.017Z,46.49
2023-04-02T11:02:48.334Z,45.95
2023-04-02T11:05:45.914Z,45.81
2023-04-02T11:08:26.171Z,47.07
2023-04-02T11:11:07.134Z,48.42
2023-04-02T11:13:41.475Z,45.88
2023-04-02T11:16:07.859Z,46.40
2023-04-02T11:18:35.016Z,46.10
2023-04-02T11:21:28.375Z,48.15
2023-04-02T11:24:02.190Z,46.38
2023-04-02T11:26:29.977Z,44.70
2023-04-02T11:29:19.808Z,48.63
2023-04-02T11:31:47.524Z,46.69
2023-04-02T11:35:03.028Z,48.47
2023-04-02T11:37:44.148Z,44.88
2023-04-02T11:40:13.633Z,47.23
2023-04-02T11:42:50.084Z,44.77
2023-04-02T11:45:25.355Z,45.03
2023-04-02T11:48:00.926Z,44.72
2023-04-02T11:50:33.505Z,45.83
2023-04-02T11:53:24.414Z,43.71
2023-04-02T11:55:53.831Z,41.86
2023-04-02T11:58:52.859Z,43.20
2023-04-02T12:01:59.599Z,42.36
2023-04-02T12:05:03.936Z,40.03
2023-04-02T12:07:30.395Z,40.38
2023-04-02T12:10:00.519Z,41.58
2023-04-02T12:12:34.093Z,38.67
2023-04-02T12:15:02.965Z,42.23
2023-04-02T12:17:35.205Z,42.29
2023-04-02T12:20:19.211Z,40.73
2023-04-02T12:22:51.665Z,38.50
2023-04-02T12:25:21.208Z,39.20
2023-04-02T12:27:47.956Z,38.52
2023-04-02T12:30:23.728Z,38.32
2023-04-02T12:32:56.107Z,39.80
2023-04-02T12:35:33.107Z,39.53
2023-04-02T12:38:00.045Z,40.29
2023-04-02T12:40:28.081Z,41.85
2023-04-02T12:42:54.437Z,40.33
2023-04-02T12:45:30.013Z,40.53
2023-04-02T12:47:57.983Z,40.18
2023-04-02T12:50:24.451Z,39.61
2023-04-02T12:52:52.447Z,39.61
2023-04-02T12:55:24.762Z,39.27
2023-04-02T12:57:59.053Z,40.43
2023-04-02T13:00:44.090Z,40.17
2023-04-02T13:03:20.704Z,40.71
2023-04-02T13:05:58.992Z,38.97
2023-04-02T13:08:30.716Z,41.63
2023-04-02T13:11:02.999Z,41.42
2023-04-02T13:13:44.054Z,41.68
2023-04-02T13:16:19.371Z,40.18
2023-04-02T13:18:47.898Z,38.33
2023-04-02T13:21:20.303Z,39.65
2023-04-02T13:23:46.809Z,38.43
2023-04-02T13:26:26.575Z,40.26
2023-04-02T13:28:57.846Z,39.79
2023-04-02T13:31:26.420Z,40.38
2023-04-02T13:33:52.752Z,39.59
2023-04-02T13:36:21.968Z,39.94
2023-04-02T13:38:55.797Z,40.51
2023-04-02T13:41:26.992Z,40.83
2023-04-02T13:43:54.694Z,37.99
2023-04-02T13:46:23.841Z,38.69
2023-04-02T13:48:51.682Z,38.33
2023-04-02T13:53:59.770Z,38.80
2023-04-02T13:56:26.303Z,36.39
2023-04-02T13:58:52.857Z,37.53
2023-04-02T14:01:21.075Z,35.35
2023-04-02T14:03:47.488Z,36.26
2023-04-02T14:06:51.081Z,34.85
2023-04-02T14:09:36.958Z,37.49
2023-04-02T14:12:06.057Z,37.04
2023-04-02T14:14:46.427Z,36.03
2023-04-02T14:17:35.292Z,35.73
2023-04-02T14:20:20.377Z,36.65
2023-04-02T14:23:19.883Z,35.94
2023-04-02T14:26:00.775Z,35.74
2023-04-02T14:28:59.244Z,35.80
2023-04-02T14:31:37.100Z,34.76
2023-04-02T14:34:16.703Z,35.33
2023-04-02T14:37:05.158Z,35.59
2023-04-02T14:39:50.211Z,35.80
2023-04-02T14:42:28.388Z,35.00
2023-04-02T14:45:33.268Z,34.91
2023-04-02T14:48:05.225Z,36.18
2023-04-02T14:50:38.323Z,34.51
2023-04-02T14:53:14.587Z,34.41
2023-04-02T14:55:43.783Z,35.03
2023-04-02T14:58:19.989Z,35.21
2023-04-02T15:00:53.681Z,35.58
2023-04-02T15:03:23.214Z,33.79
2023-04-02T15:05:55.394Z,34.08
2023-04-02T15:08:26.444Z,32.71
2023-04-02T15:10:55.750Z,34.45
2023-04-02T15:13:31.862Z,38.77
2023-04-02T15:16:13.364Z,35.81
2023-04-02T15:18:39.862Z,33.32
2023-04-02T15:21:18.328Z,32.69
2023-04-02T15:24:10.638Z,33.65
2023-04-02T15:27:00.930Z,34.61
2023-04-02T15:29:53.991Z,34.63
2023-04-02T15:32:39.275Z,34.45
2023-04-02T15:35:08.571Z,33.10
2023-04-02T15:38:29.678Z,32.70
2023-04-02T15:41:03.363Z,32.07
2023-04-02T15:43:48.808Z,30.87
2023-04-02T15:46:18.432Z,33.43
2023-04-02T15:48:58.077Z,32.62
2023-04-02T15:51:38.786Z,32.71
2023-04-02T15:54:39.640Z,32.50
2023-04-02T15:57:38.384Z,33.63
2023-04-02T16:00:31.502Z,31.78
2023-04-02T16:03:20.092Z,32.15
2023-04-02T16:06:09.742Z,34.00
2023-04-02T16:08:47.811Z,33.71
2023-04-02T16:11:15.218Z,33.14
2023-04-02T16:13:44.946Z,32.95
2023-04-02T16:16:12.719Z,31.59
2023-04-02T16:18:49.860Z,31.68
2023-04-02T16:21:24.348Z,32.72
2023-04-02T16:23:50.888Z,33.13
2023-04-02T16:26:41.167Z,31.70
2023-04-02T16:29:53.394Z,33.01
2023-04-02T16:32:47.898Z,33.20
2023-04-02T16:35:42.414Z,32.89
2023-04-02T16:38:25.007Z,32.77
2023-04-02T16:41:08.185Z,32.31
2023-04-02T16:43:46.217Z,35.12
2023-04-02T16:46:41.009Z,35.58
2023-04-02T16:49:29.969Z,37.10
2023-04-02T16:52:16.090Z,36.65
2023-04-02T16:55:03.727Z,39.36
2023-04-02T16:57:33.748Z,38.00
2023-04-02T17:00:27.058Z,38.98
2023-04-02T17:03:25.947Z,39.15
2023-04-02T17:06:08.323Z,42.02
2023-04-02T17:08:44.142Z,42.85
2023-04-02T17:11:23.486Z,44.06
2023-04-02T17:13:56.151Z,45.13
2023-04-02T17:16:37.673Z,45.76
2023-04-02T17:19:09.700Z,46.77
2023-04-02T17:21:39.575Z,46.58
2023-04-02T17:24:24.175Z,47.04
2023-04-02T17:27:08.070Z,48.21
2023-04-02T17:29:41.428Z,49.53
2023-04-02T17:32:28.461Z,50.39
2023-04-02T17:34:56.484Z,51.59
2023-04-02T17:37:37.057Z,52.98
2023-04-02T17:40:27.212Z,51.89
2023-04-02T17:42:59.602Z,53.15
2023-04-02T17:45:37.646Z,53.73
2023-04-02T17:48:25.552Z,53.91
2023-04-02T17:50:51.847Z,53.96
2023-04-02T17:53:25.896Z,53.72
2023-04-02T17:56:19.818Z,54.27
2023-04-02T17:58:59.622Z,54.98
2023-04-02T18:01:50.565Z,55.32
2023-04-02T18:04:29.925Z,56.45
2023-04-02T18:07:07.496Z,55.91
2023-04-02T18:09:39.418Z,56.69
2023-04-02T18:12:09.071Z,56.70
2023-04-02T18:15:00.185Z,59.02
2023-04-02T18:17:32.564Z,58.16
2023-04-02T18:20:23.808Z,58.05
2023-04-02T18:23:05.921Z,58.42
2023-04-02T18:25:45.491Z,58.70
2023-04-02T18:28:43.594Z,58.41
2023-04-02T18:31:31.597Z,59.54
2023-04-02T18:34:25.194Z,59.45
2023-04-02T18:37:00.437Z,59.65
2023-04-02T18:40:00.858Z,60.65
2023-04-02T18:42:53.457Z,59.16
2023-04-02T18:45:31.529Z,60.56
2023-04-02T18:48:10.153Z,60.64
2023-04-02T18:50:38.228Z,60.50
2023-04-02T18:53:18.506Z,61.28
2023-04-02T18:55:50.304Z,61.32
2023-04-02T18:58:29.109Z,61.45
2023-04-02T19:00:56.013Z,61.48
2023-04-02T19:03:38.890Z,61.55
2023-04-02T19:06:17.187Z,63.09
2023-04-02T19:08:51.904Z,63.98
2023-04-02T19:11:23.422Z,63.55
2023-04-02T19:13:49.732Z,63.04
2023-04-02T19:16:31.467Z,62.79
2023-04-02T19:19:19.679Z,61.93
2023-04-02T19:22:07.049Z,63.53
2023-04-02T19:24:51.667Z,63.54
2023-04-02T19:27:35.045Z,63.09
2023-04-02T19:30:21.944Z,63.44
2023-04-02T19:33:23.439Z,63.19
2023-04-02T19:36:04.392Z,64.08
2023-04-02T19:38:57.018Z,64.01
2023-04-02T19:41:48.287Z,64.16
2023-04-02T19:44:18.086Z,64.87
2023-04-02T19:46:45.316Z,64.09
2023-04-02T19:49:30.365Z,64.37
2023-04-02T19:51:56.719Z,63.33
2023-04-02T19:54:23.278Z,64.16
2023-04-02T19:56:54.812Z,65.30
2023-04-02T19:59:26.901Z,64.87
2023-04-02T20:01:53.228Z,64.56
2023-04-02T20:04:19.652Z,64.76
2023-04-02T20:06:46.214Z,65.00
2023-04-02T20:09:12.695Z,66.18
2023-04-02T20:11:41.968Z,66.12
2023-04-02T20:14:09.723Z,65.90
2023-04-02T20:16:36.157Z,66.60
2023-04-02T20:19:07.177Z,66.25
2023-04-02T20:21:36.021Z,66.78
2023-04-02T20:24:02.398Z,66.61
2023-04-02T20:26:33.998Z,66.34
2023-04-02T20:29:04.033Z,67.31
2023-04-02T20:31:31.873Z,67.36
2023-04-02T20:33:59.112Z,67.41
2023-04-02T20:36:27.794Z,67.16
2023-04-02T20:38:54.191Z,68.03
2023-04-02T20:41:22.774Z,67.36
2023-04-02T20:43:50.556Z,67.30
2023-04-02T20:46:18.132Z,67.66
2023-04-02T20:48:44.595Z,68.49
2023-04-02T20:51:13.622Z,68.84
2023-04-02T20:53:47.313Z,68.18
2023-04-02T20:56:17.463Z,69.07
2023-04-02T20:58:50.947Z,67.91
2023-04-02T21:01:20.159Z,67.85
2023-04-02T21:03:47.100Z,68.65
2023-04-02T21:06:19.037Z,67.79
2023-04-02T21:08:45.894Z,67.88
2023-04-02T21:11:13.200Z,67.92
2023-04-02T21:13:41.792Z,68.31
2023-04-02T21:16:19.653Z,67.70
2023-04-02T21:18:47.272Z,68.84
2023-04-02T21:21:14.725Z,68.38
2023-04-02T21:23:42.952Z,68.87
2023-04-02T21:26:17.255Z,68.35
2023-04-02T21:28:46.610Z,68.82
2023-04-02T21:31:16.056Z,68.47
2023-04-02T21:33:45.671Z,68.96
2023-04-02T21:36:14.832Z,68.85
2023-04-02T21:38:45.803Z,68.79
2023-04-02T21:41:29.957Z,68.72
2023-04-02T21:43:58.198Z,69.50
2023-04-02T21:46:27.155Z,69.28
2023-04-02T21:48:55.365Z,69.69
2023-04-02T21:51:24.462Z,69.58
2023-04-02T21:53:51.127Z,69.76
2023-04-02T21:56:23.938Z,69.20
2023-04-02T21:58:59.699Z,69.02
2023-04-02T22:01:28.475Z,70.02
2023-04-02T22:03:57.740Z,69.75
2023-04-02T22:06:29.855Z,69.38
2023-04-02T22:09:02.286Z,69.78
2023-04-02T22:11:34.613Z,69.97
2023-04-02T22:14:01.295Z,69.37
2023-04-02T22:16:30.317Z,69.68
2023-04-02T22:19:00.860Z,69.75
2023-04-02T22:21:32.162Z,70.17
2023-04-02T22:24:06.617Z,70.29
2023-04-02T22:26:33.799Z,70.22
2023-04-02T22:29:01.208Z,70.69
2023-04-02T22:31:29.771Z,71.01
2023-04-02T22:33:57.729Z,70.58
2023-04-02T22:36:27.945Z,69.88
2023-04-02T22:38:54.897Z,70.02
2023-04-02T22:41:24.604Z,69.78
2023-04-02T22:43:51.447Z,69.76
2023-04-02T22:46:23.321Z,70.16
2023-04-02T22:48:53.434Z,69.63
2023-04-02T22:51:23.900Z,70.79
2023-04-02T22:53:53.309Z,70.31
2023-04-02T22:56:22.125Z,70.68
2023-04-02T22:58:50.955Z,70.75
2023-04-02T23:01:21.097Z,71.31
2023-04-02T23:03:52.098Z,71.28
2023-04-02T23:06:18.724Z,71.09
2023-04-02T23:08:45.714Z,71.74
2023-04-02T23:11:15.354Z,71.41
2023-04-02T23:13:42.469Z,71.61
2023-04-02T23:16:22.109Z,71.12
2023-04-02T23:18:49.118Z,71.86
2023-04-02T23:21:16.839Z,72.63
2023-04-02T23:23:43.590Z,71.30
2023-04-02T23:26:12.681Z,72.05
2023-04-02T23:28:40.128Z,72.30
2023-04-02T23:31:10.568Z,72.65
2023-04-02T23:33:37.387Z,71.49
2023-04-02T23:36:08.935Z,72.06
2023-04-02T23:38:39.201Z,72.17
2023-04-02T23:41:08.722Z,72.09
2023-04-02T23:43:35.089Z,72.14
2023-04-02T23:46:01.462Z,72.29
2023-04-02T23:48:27.931Z,72.19
2023-04-02T23:50:54.274Z,72.04
2023-04-02T23:53:24.316Z,72.34
2023-04-02T23:55:51.805Z,72.09
2023-04-02T23:58:20.470Z,72.73
